Terminal Aerodrome Forecast
Issued by NWS

Home | Current Version | Previous Version | Text Only | Print | Product List | Glossary Off
Versions: 1 2 3 4 5 6 7 8 9 10 11 12 13 14 15 16

000
FTUS43 KTOP 300520
TAFFOE
TAF
KFOE 300520Z 3006/0106 22004KT P6SM BKN200
     FM301500 24010KT P6SM BKN250
     FM302000 11010KT P6SM SCT080=

USA.gov is the U.S. government's official web portal to all federal, state and local government web resources and services.